Time;durP1;ratioP1;P1;durP2;ratioP2;P2;SDS_P1;SDS_P2;PMS_P1;PMS_P2;Temp;Humidity;BMP_temperature;BMP_pressure;BME280_temperature;BME280_humidity;BME280_pressure;Samples;Min_cycle;Max_cycle;Signal;HPM_P1;HPM_P2
2022/06/27 00:00:20;;;;;;;3.53;1.52;;;17.70;99.90;;;;;;5065683;28;20067;-72
2022/06/27 00:02:46;;;;;;;3.75;1.85;;;17.70;99.90;;;;;;5063752;28;20051;-72
2022/06/27 00:05:12;;;;;;;2.75;1.70;;;17.70;99.90;;;;;;5060683;28;20032;-72
2022/06/27 00:07:38;;;;;;;3.60;1.75;;;17.60;99.90;;;;;;5059884;28;20350;-72
2022/06/27 00:10:05;;;;;;;3.13;1.83;;;17.60;99.90;;;;;;5064602;28;20039;-72
2022/06/27 00:12:31;;;;;;;3.28;1.73;;;17.60;99.90;;;;;;5065934;28;20036;-72
2022/06/27 00:14:57;;;;;;;3.08;1.83;;;17.60;99.90;;;;;;5065505;28;20023;-72
2022/06/27 00:17:23;;;;;;;3.45;2.00;;;17.60;99.90;;;;;;5059993;28;20586;-72
2022/06/27 00:19:48;;;;;;;4.20;1.50;;;17.70;99.90;;;;;;5072786;28;20043;-72
2022/06/27 00:22:14;;;;;;;2.83;1.80;;;17.70;99.90;;;;;;5058097;28;20042;-72
2022/06/27 00:24:39;;;;;;;3.38;2.03;;;17.70;99.90;;;;;;5064881;28;20131;-72
2022/06/27 00:27:05;;;;;;;3.50;1.88;;;17.60;99.90;;;;;;5058451;28;20032;-72
2022/06/27 00:29:31;;;;;;;2.78;1.98;;;17.70;99.90;;;;;;5060746;28;20486;-72
2022/06/27 00:31:57;;;;;;;2.22;1.65;;;17.60;99.90;;;;;;5068775;28;20533;-72
2022/06/27 00:34:22;;;;;;;2.90;1.65;;;17.60;99.90;;;;;;5059680;28;20028;-72
2022/06/27 00:36:48;;;;;;;3.42;2.05;;;17.50;99.90;;;;;;5064832;28;20061;-72
2022/06/27 00:39:14;;;;;;;3.38;1.73;;;17.60;99.90;;;;;;5068042;28;20036;-72
2022/06/27 00:41:39;;;;;;;2.65;1.85;;;17.50;99.90;;;;;;5066738;28;20504;-72
2022/06/27 00:44:05;;;;;;;3.53;1.90;;;17.60;99.90;;;;;;5068002;28;20543;-72
2022/06/27 00:46:31;;;;;;;3.50;2.05;;;17.60;99.90;;;;;;5059443;28;20563;-72
2022/06/27 00:48:57;;;;;;;3.38;1.92;;;17.60;99.90;;;;;;5059502;28;20543;-72
2022/06/27 00:51:24;;;;;;;3.05;1.83;;;17.60;99.90;;;;;;5057626;28;20052;-72
2022/06/27 00:53:54;;;;;;;2.80;1.60;;;17.60;99.90;;;;;;5058018;28;20048;-72
2022/06/27 00:56:20;;;;;;;3.33;2.20;;;17.50;99.90;;;;;;5061083;28;20029;-72
2022/06/27 00:58:46;;;;;;;2.72;1.92;;;17.50;99.90;;;;;;5060441;28;20064;-72
2022/06/27 01:01:12;;;;;;;3.00;1.58;;;17.50;99.90;;;;;;5060314;28;20063;-72
2022/06/27 01:03:38;;;;;;;2.58;1.77;;;17.50;99.90;;;;;;5056553;28;20043;-72
2022/06/27 01:06:04;;;;;;;3.28;1.42;;;17.40;99.90;;;;;;5070764;28;20028;-72
2022/06/27 01:08:30;;;;;;;2.58;1.73;;;17.40;99.90;;;;;;5057163;28;20482;-72
2022/06/27 01:10:55;;;;;;;3.20;1.92;;;17.40;99.90;;;;;;5054650;28;20106;-72
2022/06/27 01:13:22;;;;;;;3.30;2.00;;;17.40;99.90;;;;;;5056032;28;20036;-72
2022/06/27 01:15:48;;;;;;;3.63;2.38;;;17.30;99.90;;;;;;5058831;28;20033;-72
2022/06/27 01:18:14;;;;;;;3.63;2.15;;;17.30;99.90;;;;;;5054178;28;20049;-72
2022/06/27 01:20:44;;;;;;;3.63;2.20;;;17.40;99.90;;;;;;5059354;28;20051;-72
2022/06/27 01:23:10;;;;;;;4.38;2.67;;;17.30;99.90;;;;;;5055611;28;20552;-72
2022/06/27 01:25:37;;;;;;;3.53;2.17;;;17.40;99.90;;;;;;5055633;28;20084;-72
2022/06/27 01:28:04;;;;;;;7.55;2.22;;;17.30;99.90;;;;;;5057773;28;20056;-72
2022/06/27 01:30:30;;;;;;;3.65;2.60;;;17.40;99.90;;;;;;5059358;28;20040;-72
2022/06/27 01:32:55;;;;;;;3.70;2.40;;;17.40;99.90;;;;;;5056718;28;20036;-72
2022/06/27 01:35:21;;;;;;;5.03;2.40;;;17.30;99.90;;;;;;5062068;28;20040;-72
2022/06/27 01:37:47;;;;;;;3.50;2.13;;;17.30;99.90;;;;;;5054105;28;20041;-72
2022/06/27 01:40:14;;;;;;;3.50;2.20;;;17.30;99.90;;;;;;5055469;28;20555;-72
2022/06/27 01:42:41;;;;;;;3.67;2.17;;;17.30;99.90;;;;;;5059270;28;20217;-72
2022/06/27 01:45:07;;;;;;;4.32;2.70;;;17.30;99.90;;;;;;5058346;28;20033;-72
2022/06/27 01:47:32;;;;;;;4.43;2.42;;;17.30;99.90;;;;;;5054456;28;20032;-72
2022/06/27 01:49:58;;;;;;;3.88;2.15;;;17.30;99.90;;;;;;5055095;28;20135;-72
2022/06/27 01:52:27;;;;;;;3.70;2.45;;;17.20;99.90;;;;;;5059221;28;20037;-72
2022/06/27 01:54:53;;;;;;;3.85;2.30;;;17.20;99.90;;;;;;5058714;28;20033;-72
2022/06/27 01:57:19;;;;;;;4.70;2.67;;;17.30;99.90;;;;;;5054703;28;20049;-72
2022/06/27 01:59:45;;;;;;;4.93;2.67;;;17.30;99.90;;;;;;5059456;28;20040;-72
2022/06/27 02:02:11;;;;;;;4.80;2.55;;;17.30;99.90;;;;;;5061314;28;20078;-72
2022/06/27 02:04:37;;;;;;;3.35;2.13;;;17.30;99.90;;;;;;5058001;28;20449;-72
2022/06/27 02:07:04;;;;;;;4.63;2.70;;;17.30;99.90;;;;;;5058956;28;20044;-72
2022/06/27 02:09:30;;;;;;;5.05;2.95;;;17.30;99.90;;;;;;5057912;28;20044;-72
2022/06/27 02:11:56;;;;;;;4.93;2.55;;;17.30;99.90;;;;;;5053464;28;20037;-72
2022/06/27 02:14:22;;;;;;;4.05;2.72;;;17.40;99.90;;;;;;5058315;28;20041;-72
2022/06/27 02:16:48;;;;;;;5.88;2.90;;;17.30;99.90;;;;;;5052757;28;20510;-72
2022/06/27 02:19:17;;;;;;;3.80;2.50;;;17.30;99.90;;;;;;5052604;28;20057;-72
2022/06/27 02:21:44;;;;;;;2.55;2.03;;;17.30;99.90;;;;;;5059724;28;20115;-72
2022/06/27 02:24:10;;;;;;;3.65;2.42;;;17.30;99.90;;;;;;5057072;28;20072;-72
2022/06/27 02:26:37;;;;;;;4.07;2.55;;;17.30;99.90;;;;;;5041710;28;20048;-72
2022/06/27 02:29:04;;;;;;;3.97;2.50;;;17.30;99.90;;;;;;5055820;28;20241;-72
2022/06/27 02:31:30;;;;;;;4.97;2.78;;;17.30;99.90;;;;;;5056528;28;20221;-72
2022/06/27 02:33:56;;;;;;;4.53;2.60;;;17.30;99.90;;;;;;5055116;28;20409;-72
2022/06/27 02:36:37;;;;;;;4.55;2.72;;;17.30;99.90;;;;;;5059986;28;20038;-72
2022/06/27 02:39:04;;;;;;;4.10;2.13;;;17.30;99.90;;;;;;5057971;28;20033;-72
2022/06/27 02:41:33;;;;;;;5.93;2.60;;;17.40;99.90;;;;;;5052957;28;20576;-72
2022/06/27 02:44:08;;;;;;;4.05;2.55;;;17.40;99.90;;;;;;5056225;28;20037;-72
2022/06/27 02:46:34;;;;;;;4.53;2.70;;;17.30;99.90;;;;;;5061549;28;20040;-72
2022/06/27 02:49:00;;;;;;;4.55;2.55;;;17.40;99.90;;;;;;5060258;28;20309;-72
2022/06/27 02:51:33;;;;;;;3.90;2.55;;;17.40;99.90;;;;;;5054092;28;20418;-72
2022/06/27 02:54:03;;;;;;;4.28;2.80;;;17.40;99.90;;;;;;5061917;28;20075;-72
2022/06/27 02:56:31;;;;;;;4.97;2.88;;;17.30;99.90;;;;;;5056387;28;20059;-72
2022/06/27 02:59:09;;;;;;;4.55;2.60;;;17.30;99.90;;;;;;5059754;28;20098;-72
2022/06/27 03:01:38;;;;;;;4.88;2.83;;;17.40;99.90;;;;;;5060335;28;20032;-73
2022/06/27 03:04:04;;;;;;;5.07;3.13;;;17.30;99.90;;;;;;5058415;28;20203;-73
2022/06/27 03:06:30;;;;;;;7.13;3.33;;;17.30;99.90;;;;;;5061039;28;20167;-72
2022/06/27 03:08:56;;;;;;;4.90;3.15;;;17.30;99.90;;;;;;5055432;28;20153;-72
2022/06/27 03:11:23;;;;;;;5.40;2.83;;;17.30;99.90;;;;;;5055851;28;20099;-72
2022/06/27 03:13:50;;;;;;;5.78;3.28;;;17.30;99.90;;;;;;5060685;28;20466;-72
2022/06/27 03:16:17;;;;;;;6.88;3.42;;;17.20;99.90;;;;;;5045327;28;20056;-72
2022/06/27 03:18:44;;;;;;;5.63;3.35;;;17.20;99.90;;;;;;5063210;28;20052;-72
2022/06/27 03:21:11;;;;;;;5.82;3.08;;;17.30;99.90;;;;;;5061919;28;20040;-72
2022/06/27 03:23:37;;;;;;;8.27;4.03;;;17.30;99.90;;;;;;5054694;28;20044;-72
2022/06/27 03:26:03;;;;;;;5.65;3.42;;;17.20;99.90;;;;;;5061703;28;20488;-72
2022/06/27 03:28:29;;;;;;;6.57;4.07;;;17.20;99.90;;;;;;5060090;28;20115;-72
2022/06/27 03:30:55;;;;;;;6.20;3.67;;;17.20;99.90;;;;;;5060250;28;20880;-72
2022/06/27 03:33:20;;;;;;;6.50;3.78;;;17.30;99.90;;;;;;5058065;28;20047;-72
2022/06/27 03:35:46;;;;;;;7.60;3.67;;;17.30;99.90;;;;;;5057950;28;20453;-73
2022/06/27 03:38:12;;;;;;;6.50;3.42;;;17.30;99.90;;;;;;5063557;28;20064;-72
2022/06/27 03:40:38;;;;;;;6.65;3.70;;;17.30;99.90;;;;;;5055379;28;20107;-72
2022/06/27 03:43:04;;;;;;;4.97;3.22;;;17.30;99.90;;;;;;5058306;28;20063;-72
2022/06/27 03:45:29;;;;;;;7.43;4.10;;;17.30;99.90;;;;;;5066291;28;20106;-72
2022/06/27 03:48:01;;;;;;;6.45;3.55;;;17.30;99.90;;;;;;5063466;28;20047;-72
2022/06/27 03:50:26;;;;;;;6.03;3.33;;;17.30;99.90;;;;;;5046088;28;20067;-72
2022/06/27 03:52:54;;;;;;;5.78;3.63;;;17.30;99.90;;;;;;5061462;28;20091;-72
2022/06/27 03:55:20;;;;;;;6.82;3.97;;;17.30;99.90;;;;;;5062040;28;20052;-72
2022/06/27 03:57:48;;;;;;;5.95;3.67;;;17.30;99.90;;;;;;5060993;28;20087;-72
2022/06/27 04:00:15;;;;;;;5.97;3.22;;;17.30;99.90;;;;;;5063716;28;20037;-72
2022/06/27 04:02:41;;;;;;;5.93;3.42;;;17.30;99.90;;;;;;5059321;28;20153;-72
2022/06/27 04:05:07;;;;;;;6.07;3.33;;;17.30;99.90;;;;;;5053600;28;20164;-72
2022/06/27 04:07:33;;;;;;;5.47;3.17;;;17.20;99.90;;;;;;5074344;28;20124;-72
2022/06/27 04:09:59;;;;;;;4.72;2.78;;;17.30;99.90;;;;;;5059649;28;20116;-72
2022/06/27 04:12:24;;;;;;;4.90;2.88;;;17.30;99.90;;;;;;5058585;28;20309;-73
2022/06/27 04:14:50;;;;;;;3.42;2.25;;;17.30;99.90;;;;;;5053244;28;20063;-72
2022/06/27 04:17:16;;;;;;;5.00;2.53;;;17.30;99.90;;;;;;5060281;28;20144;-72
2022/06/27 04:19:42;;;;;;;3.88;2.10;;;17.20;99.90;;;;;;5057857;28;20112;-72
2022/06/27 04:22:11;;;;;;;5.57;1.80;;;17.20;99.90;;;;;;5060538;28;20028;-72
2022/06/27 04:24:37;;;;;;;3.80;2.00;;;17.20;99.90;;;;;;5059293;28;20029;-72
2022/06/27 04:27:04;;;;;;;3.75;1.65;;;17.20;99.90;;;;;;5051333;28;20047;-72
2022/06/27 04:29:30;;;;;;;3.03;1.55;;;17.20;99.90;;;;;;5042771;28;20049;-72
2022/06/27 04:31:57;;;;;;;3.35;1.95;;;17.20;99.90;;;;;;5058470;28;20157;-72
2022/06/27 04:34:23;;;;;;;4.35;2.10;;;17.10;99.90;;;;;;5057027;28;20594;-72
2022/06/27 04:36:49;;;;;;;3.53;2.08;;;17.10;99.90;;;;;;5062019;28;20036;-72
2022/06/27 04:39:17;;;;;;;3.13;1.67;;;17.10;99.90;;;;;;5057796;28;20039;-72
2022/06/27 04:41:46;;;;;;;4.03;1.90;;;17.10;99.90;;;;;;5053897;28;20492;-72
2022/06/27 04:44:12;;;;;;;3.03;1.70;;;17.10;99.90;;;;;;5063933;28;20025;-72
2022/06/27 04:46:42;;;;;;;3.13;1.67;;;17.00;99.90;;;;;;5059565;28;20037;-72
2022/06/27 04:49:08;;;;;;;3.47;1.25;;;17.00;99.90;;;;;;5057566;28;20076;-72
2022/06/27 04:51:35;;;;;;;2.25;1.13;;;17.00;99.90;;;;;;5058808;28;20036;-72
2022/06/27 04:54:01;;;;;;;1.83;1.17;;;16.90;99.90;;;;;;5060200;28;20063;-72
2022/06/27 04:56:26;;;;;;;2.40;1.20;;;16.90;99.90;;;;;;5061056;28;20028;-72
2022/06/27 04:58:52;;;;;;;1.65;0.82;;;16.90;99.90;;;;;;5060841;28;20037;-72
2022/06/27 05:01:18;;;;;;;2.30;1.00;;;16.90;99.90;;;;;;5061256;28;20025;-72
2022/06/27 05:03:43;;;;;;;2.38;1.10;;;16.80;99.90;;;;;;5058323;28;20506;-72
2022/06/27 05:06:09;;;;;;;1.17;0.65;;;16.80;99.90;;;;;;5051500;28;20072;-72
2022/06/27 05:08:37;;;;;;;1.27;0.65;;;16.80;99.90;;;;;;5073939;28;20040;-73
2022/06/27 05:11:03;;;;;;;2.60;0.70;;;16.70;99.90;;;;;;5059722;28;20088;-72
2022/06/27 05:13:29;;;;;;;1.20;0.70;;;16.60;99.90;;;;;;5058731;28;20425;-72
2022/06/27 05:15:55;;;;;;;1.45;0.80;;;16.60;99.90;;;;;;5061180;28;20282;-72
2022/06/27 05:18:21;;;;;;;1.25;0.70;;;16.60;99.90;;;;;;5057206;28;20475;-72
2022/06/27 05:20:48;;;;;;;1.23;0.50;;;16.60;99.90;;;;;;5032357;28;20059;-72
2022/06/27 05:23:13;;;;;;;1.63;0.60;;;16.60;99.90;;;;;;5061183;28;20040;-72
2022/06/27 05:25:41;;;;;;;1.40;0.68;;;16.60;99.90;;;;;;5061207;28;20032;-72
2022/06/27 05:28:07;;;;;;;2.50;0.73;;;16.60;99.90;;;;;;5059014;28;20079;-72
2022/06/27 05:30:33;;;;;;;0.90;0.63;;;16.60;99.90;;;;;;5059473;28;20028;-72
2022/06/27 05:32:59;;;;;;;1.25;0.82;;;16.60;99.90;;;;;;5059378;28;20520;-72
2022/06/27 05:35:24;;;;;;;1.85;0.63;;;16.60;99.90;;;;;;5057179;28;20044;-72
2022/06/27 05:37:50;;;;;;;1.08;0.70;;;16.60;99.90;;;;;;5060002;28;20045;-72
2022/06/27 05:40:17;;;;;;;1.48;0.75;;;16.60;99.90;;;;;;5043811;28;20406;-72
2022/06/27 05:42:43;;;;;;;1.90;0.90;;;16.60;99.90;;;;;;5058983;28;20033;-72
2022/06/27 05:45:10;;;;;;;2.25;0.70;;;16.60;99.90;;;;;;5059143;28;20394;-72
2022/06/27 05:47:36;;;;;;;0.55;0.50;;;16.60;99.90;;;;;;5050144;28;20127;-72
2022/06/27 05:50:04;;;;;;;1.52;0.95;;;16.60;99.90;;;;;;5057096;28;20062;-72
2022/06/27 05:52:30;;;;;;;1.90;0.75;;;16.60;99.90;;;;;;5059903;28;20040;-72
2022/06/27 05:54:56;;;;;;;1.67;0.75;;;16.70;99.90;;;;;;5060135;28;20367;-72
2022/06/27 05:57:24;;;;;;;1.27;0.90;;;16.70;99.90;;;;;;5056485;28;20052;-72
2022/06/27 05:59:51;;;;;;;1.35;0.70;;;16.80;99.90;;;;;;5039420;28;20040;-72
2022/06/27 06:02:16;;;;;;;1.20;0.70;;;16.80;99.90;;;;;;5041120;28;20052;-72
2022/06/27 06:04:43;;;;;;;1.08;0.60;;;16.90;99.90;;;;;;5060505;28;20045;-72
2022/06/27 06:07:09;;;;;;;1.52;0.90;;;16.90;99.90;;;;;;5055700;28;20049;-72
2022/06/27 06:09:35;;;;;;;1.55;0.73;;;16.90;99.90;;;;;;5060709;28;20490;-72
2022/06/27 06:12:00;;;;;;;1.63;0.80;;;16.90;99.90;;;;;;5061179;28;20040;-72
2022/06/27 06:14:26;;;;;;;1.25;0.80;;;16.90;99.90;;;;;;5056457;28;20187;-72
2022/06/27 06:16:52;;;;;;;1.52;0.85;;;16.80;99.90;;;;;;5056906;28;20052;-72
2022/06/27 06:19:17;;;;;;;1.23;0.70;;;16.90;99.90;;;;;;5052951;28;20041;-72
2022/06/27 06:21:43;;;;;;;1.70;1.00;;;16.90;99.90;;;;;;5045925;28;20470;-72
2022/06/27 06:24:09;;;;;;;1.95;1.30;;;16.90;99.90;;;;;;5060010;28;20170;-72
2022/06/27 06:26:35;;;;;;;1.30;0.77;;;16.90;99.90;;;;;;5055464;28;20194;-72
2022/06/27 06:29:11;;;;;;;1.35;0.75;;;17.00;99.90;;;;;;5056294;28;20048;-72
2022/06/27 06:31:43;;;;;;;1.65;0.85;;;17.00;99.90;;;;;;5058299;28;20037;-72
2022/06/27 06:34:10;;;;;;;1.92;0.80;;;17.00;99.90;;;;;;5058707;28;20041;-72
2022/06/27 06:36:38;;;;;;;1.38;0.70;;;17.00;99.90;;;;;;5059517;28;20037;-73
2022/06/27 06:39:04;;;;;;;1.33;0.80;;;17.00;99.90;;;;;;5060403;28;20044;-72
2022/06/27 06:41:31;;;;;;;1.70;1.00;;;17.10;99.90;;;;;;5058919;28;20628;-73
2022/06/27 06:43:59;;;;;;;1.52;0.80;;;17.10;99.90;;;;;;5060039;28;20033;-72
2022/06/27 06:46:24;;;;;;;1.98;1.00;;;17.10;99.90;;;;;;5058885;28;20044;-72
2022/06/27 06:48:54;;;;;;;1.83;0.95;;;17.10;99.90;;;;;;5057268;28;20045;-73
2022/06/27 06:51:20;;;;;;;1.17;0.77;;;17.10;99.90;;;;;;5073822;28;20085;-73
2022/06/27 06:53:46;;;;;;;3.67;0.93;;;17.00;99.90;;;;;;5045673;28;20088;-73
2022/06/27 06:56:12;;;;;;;1.40;0.70;;;17.00;99.90;;;;;;5063453;28;20080;-73
2022/06/27 06:58:38;;;;;;;1.80;0.80;;;17.10;99.90;;;;;;5064689;28;20040;-73
2022/06/27 07:01:03;;;;;;;1.55;0.90;;;17.10;99.90;;;;;;5061912;28;20292;-73
2022/06/27 07:03:29;;;;;;;2.05;0.90;;;17.20;99.90;;;;;;5059989;28;20033;-73
2022/06/27 07:05:56;;;;;;;2.58;1.13;;;17.20;99.90;;;;;;5061058;28;20406;-74
2022/06/27 07:08:23;;;;;;;1.85;1.02;;;17.20;99.90;;;;;;5060142;28;20074;-73
2022/06/27 07:10:49;;;;;;;1.55;0.88;;;17.20;99.90;;;;;;5054734;28;20042;-73
2022/06/27 07:13:15;;;;;;;1.48;0.70;;;17.20;99.90;;;;;;5061241;28;20449;-73
2022/06/27 07:15:45;;;;;;;1.75;0.75;;;17.20;99.90;;;;;;5059767;28;20582;-72
2022/06/27 07:18:13;;;;;;;2.50;1.05;;;17.20;99.90;;;;;;5061361;28;21751;-73
2022/06/27 07:20:39;;;;;;;2.58;1.10;;;17.20;99.90;;;;;;5050627;28;20465;-72
2022/06/27 07:23:06;;;;;;;3.63;1.00;;;17.20;99.90;;;;;;5055696;28;20043;-72
2022/06/27 07:25:33;;;;;;;2.75;1.00;;;17.10;99.90;;;;;;5058261;28;20317;-73
2022/06/27 07:27:59;;;;;;;1.63;0.90;;;17.10;99.90;;;;;;5057040;28;20257;-73
2022/06/27 07:30:25;;;;;;;1.48;0.80;;;17.10;99.90;;;;;;5051965;28;20242;-73
2022/06/27 07:32:51;;;;;;;1.85;1.08;;;17.00;99.90;;;;;;5057245;28;20033;-73
2022/06/27 07:35:17;;;;;;;1.88;0.77;;;17.00;99.90;;;;;;5057221;28;20040;-74
2022/06/27 07:37:51;;;;;;;2.00;1.05;;;17.00;99.90;;;;;;5063798;28;20719;-72
2022/06/27 07:40:22;;;;;;;2.15;0.82;;;17.00;99.90;;;;;;5053401;28;20032;-73
2022/06/27 07:42:50;;;;;;;2.05;1.05;;;17.00;99.90;;;;;;5061874;28;20111;-81
2022/06/27 07:45:18;;;;;;;2.05;0.90;;;17.00;99.90;;;;;;5051783;28;20087;-73
2022/06/27 07:47:46;;;;;;;1.48;0.80;;;17.10;99.90;;;;;;5060834;28;20101;-73
2022/06/27 07:50:36;;;;;;;1.20;0.70;;;17.10;99.90;;;;;;5058116;28;20450;-72
2022/06/27 07:53:12;;;;;;;2.05;0.80;;;17.10;99.90;;;;;;5062209;28;20052;-72
2022/06/27 07:55:58;;;;;;;1.52;0.80;;;17.10;99.90;;;;;;5051621;28;20448;-73
2022/06/27 07:58:36;;;;;;;1.40;0.73;;;17.10;99.90;;;;;;5059307;28;20079;-73
2022/06/27 08:01:08;;;;;;;1.50;1.00;;;17.10;99.90;;;;;;5060810;28;20044;-73
2022/06/27 08:03:40;;;;;;;1.50;0.85;;;17.10;99.90;;;;;;5063655;28;20654;-73
2022/06/27 08:06:10;;;;;;;2.47;1.00;;;17.00;99.90;;;;;;5062254;28;20032;-73
2022/06/27 08:08:39;;;;;;;2.33;1.02;;;17.00;99.90;;;;;;5037946;28;20080;-73
2022/06/27 08:11:06;;;;;;;2.63;1.20;;;17.00;99.90;;;;;;5055831;28;20060;-73
2022/06/27 08:13:32;;;;;;;1.75;1.00;;;17.00;99.90;;;;;;5060185;28;20037;-73
2022/06/27 08:15:59;;;;;;;1.70;1.00;;;17.00;99.90;;;;;;5056710;28;20055;-73
2022/06/27 08:18:26;;;;;;;1.98;0.82;;;17.00;99.90;;;;;;5061633;28;20044;-73
2022/06/27 08:20:52;;;;;;;1.85;0.90;;;17.10;99.90;;;;;;5056746;28;20048;-70
2022/06/27 08:23:18;;;;;;;3.28;1.17;;;17.10;99.90;;;;;;5057140;28;20042;-73
2022/06/27 08:25:46;;;;;;;1.90;1.00;;;17.10;99.90;;;;;;5047316;28;20037;-72
2022/06/27 08:28:13;;;;;;;4.05;1.05;;;17.20;99.90;;;;;;5061545;28;20041;-73
2022/06/27 08:30:41;;;;;;;2.00;1.02;;;17.30;99.90;;;;;;5056621;28;20040;-73
2022/06/27 08:33:07;;;;;;;1.55;1.02;;;17.30;99.90;;;;;;5062026;28;20075;-73
2022/06/27 08:35:33;;;;;;;2.00;0.90;;;17.30;99.90;;;;;;5057495;28;20064;-73
2022/06/27 08:37:59;;;;;;;2.15;1.30;;;17.40;99.90;;;;;;5056781;28;20732;-73
2022/06/27 08:40:26;;;;;;;1.98;1.05;;;17.40;99.90;;;;;;5053930;28;20036;-73
2022/06/27 08:42:54;;;;;;;1.60;0.77;;;17.50;99.90;;;;;;5052508;28;20502;-73
2022/06/27 08:45:23;;;;;;;2.88;1.40;;;17.50;99.90;;;;;;5057768;28;20559;-73
2022/06/27 08:47:50;;;;;;;2.08;1.20;;;17.50;99.90;;;;;;5056724;28;20036;-73
2022/06/27 08:50:17;;;;;;;1.70;0.95;;;17.60;99.90;;;;;;5060626;28;20041;-73
2022/06/27 08:52:45;;;;;;;2.05;1.30;;;17.50;99.90;;;;;;5058899;28;20221;-73
2022/06/27 08:55:11;;;;;;;3.92;1.00;;;17.50;99.90;;;;;;5057633;28;20165;-73
2022/06/27 08:57:41;;;;;;;1.83;1.10;;;17.50;99.90;;;;;;5055139;28;20551;-73
2022/06/27 09:00:09;;;;;;;2.10;1.17;;;17.50;99.90;;;;;;5056564;28;20499;-72
2022/06/27 09:02:42;;;;;;;2.25;1.13;;;17.50;99.90;;;;;;5055581;28;20509;-73
2022/06/27 09:05:26;;;;;;;1.70;0.80;;;17.60;99.90;;;;;;5056398;28;20064;-74
2022/06/27 09:07:57;;;;;;;2.05;1.00;;;17.60;99.90;;;;;;5053694;28;20044;-74
2022/06/27 09:10:36;;;;;;;2.13;0.98;;;17.60;99.90;;;;;;5052484;28;20028;-74
2022/06/27 09:13:12;;;;;;;3.63;1.58;;;17.70;99.90;;;;;;5061207;28;20083;-74
2022/06/27 09:15:48;;;;;;;2.13;1.10;;;17.70;99.90;;;;;;5061122;28;20044;-74
2022/06/27 09:18:20;;;;;;;2.50;1.13;;;17.80;99.90;;;;;;5058247;28;20072;-74
2022/06/27 09:20:59;;;;;;;1.77;0.93;;;17.80;99.90;;;;;;5055116;28;20047;-74
2022/06/27 09:23:43;;;;;;;2.08;1.08;;;17.80;99.90;;;;;;5045628;28;20160;-72
2022/06/27 09:26:27;;;;;;;1.75;0.95;;;17.80;99.90;;;;;;5055322;28;20051;-74
2022/06/27 09:28:56;;;;;;;2.17;1.10;;;17.80;99.90;;;;;;5048651;28;20067;-73
2022/06/27 09:31:28;;;;;;;2.03;1.00;;;17.80;99.90;;;;;;5057759;28;20135;-74
2022/06/27 09:34:18;;;;;;;2.80;1.08;;;17.80;99.90;;;;;;5050556;28;20086;-73
2022/06/27 09:36:52;;;;;;;2.55;1.23;;;17.70;99.90;;;;;;5055130;28;20120;-73
2022/06/27 09:39:19;;;;;;;1.73;1.00;;;17.70;99.90;;;;;;5056485;28;20073;-73
2022/06/27 09:42:04;;;;;;;1.50;0.88;;;17.70;99.90;;;;;;5063586;28;20032;-73
2022/06/27 09:44:38;;;;;;;1.65;0.95;;;17.70;99.90;;;;;;5040503;28;20041;-73
2022/06/27 09:47:16;;;;;;;2.97;1.00;;;17.70;99.90;;;;;;5062724;28;20490;-73
2022/06/27 09:49:44;;;;;;;1.92;1.15;;;17.80;99.90;;;;;;5058177;28;20565;-73
2022/06/27 09:52:12;;;;;;;1.23;0.70;;;17.70;99.90;;;;;;5060075;28;20526;-73
2022/06/27 09:54:41;;;;;;;1.83;0.98;;;17.80;99.90;;;;;;5029518;28;20043;-73
2022/06/27 09:57:08;;;;;;;1.45;0.95;;;17.80;99.90;;;;;;5055955;28;20028;-73
2022/06/27 09:59:34;;;;;;;1.95;1.08;;;17.90;99.90;;;;;;5057757;28;20090;-72
2022/06/27 10:02:00;;;;;;;2.00;1.00;;;17.90;99.90;;;;;;5055624;28;20036;-73
2022/06/27 10:04:28;;;;;;;2.22;1.10;;;17.90;99.90;;;;;;5049008;28;20040;-73
2022/06/27 10:06:55;;;;;;;1.67;0.90;;;17.90;99.90;;;;;;5044974;28;20041;-73
2022/06/27 10:09:24;;;;;;;2.28;0.93;;;17.90;99.90;;;;;;5059360;28;20168;-73
2022/06/27 10:12:28;;;;;;;1.65;0.82;;;18.00;99.90;;;;;;5057905;28;20050;-73
2022/06/27 10:15:14;;;;;;;1.83;1.00;;;18.00;99.90;;;;;;5056897;28;20595;-74
2022/06/27 10:17:52;;;;;;;2.85;1.13;;;18.10;99.90;;;;;;5059284;28;20085;-73
2022/06/27 10:20:29;;;;;;;1.75;1.05;;;18.20;99.90;;;;;;5044867;28;22043;-73
2022/06/27 10:23:04;;;;;;;2.53;1.40;;;18.10;99.90;;;;;;5070581;28;20124;-74
2022/06/27 10:25:29;;;;;;;1.65;0.82;;;18.10;99.90;;;;;;5059655;28;20028;-74
2022/06/27 10:28:11;;;;;;;2.45;1.17;;;18.20;99.90;;;;;;5063834;28;20078;-74
2022/06/27 10:30:42;;;;;;;2.58;0.93;;;18.20;99.90;;;;;;5074030;28;20047;-74
2022/06/27 10:33:22;;;;;;;2.40;1.15;;;18.20;99.90;;;;;;5055728;28;20391;-73
2022/06/27 10:35:57;;;;;;;1.92;1.00;;;18.20;99.90;;;;;;5062391;28;20032;-73
2022/06/27 10:38:35;;;;;;;1.90;1.02;;;18.20;99.90;;;;;;5049645;28;20044;-74
2022/06/27 10:41:06;;;;;;;2.33;1.02;;;18.30;99.90;;;;;;5057766;28;20047;-73
2022/06/27 10:43:41;;;;;;;1.23;0.77;;;18.30;99.90;;;;;;5056852;28;20039;-73
2022/06/27 10:46:09;;;;;;;1.63;1.00;;;18.30;99.90;;;;;;5055732;28;20451;-73
2022/06/27 10:48:54;;;;;;;0.95;0.70;;;18.30;99.90;;;;;;5051729;28;20044;-73
2022/06/27 10:51:26;;;;;;;1.55;0.70;;;18.30;99.90;;;;;;5052868;28;20044;-73
2022/06/27 10:54:09;;;;;;;1.30;0.82;;;18.30;99.90;;;;;;5050877;28;20040;-73
2022/06/27 10:56:50;;;;;;;1.50;0.90;;;18.40;99.90;;;;;;5053900;28;20052;-73
2022/06/27 10:59:15;;;;;;;2.33;1.25;;;18.40;99.90;;;;;;5069414;28;20041;-73
2022/06/27 11:01:42;;;;;;;1.23;0.73;;;18.50;99.90;;;;;;5073385;28;20056;-73
2022/06/27 11:04:24;;;;;;;1.48;1.00;;;18.50;99.90;;;;;;5066340;28;20089;-73
2022/06/27 11:06:56;;;;;;;2.05;1.02;;;18.50;99.90;;;;;;5061785;28;20144;-73
2022/06/27 11:09:36;;;;;;;1.10;0.68;;;18.60;99.90;;;;;;5069549;28;20056;-73
2022/06/27 11:12:04;;;;;;;1.88;1.08;;;18.60;99.90;;;;;;5068917;28;20387;-73
2022/06/27 11:14:29;;;;;;;1.73;0.95;;;18.60;99.90;;;;;;5064600;28;20052;-74
2022/06/27 11:16:55;;;;;;;3.20;1.30;;;18.70;99.90;;;;;;5073702;28;20394;-73
2022/06/27 11:22:21;;;;;;;1.85;0.90;;;18.70;99.90;;;;;;5068290;28;20044;-73
2022/06/27 11:24:48;;;;;;;2.15;1.00;;;18.70;99.90;;;;;;5061837;28;20054;-73
2022/06/27 11:27:15;;;;;;;1.20;0.80;;;18.70;99.90;;;;;;5058677;28;20351;-73
2022/06/27 11:32:32;;;;;;;1.40;0.68;;;18.60;99.90;;;;;;5062583;28;20045;-73
2022/06/27 11:34:58;;;;;;;2.97;0.68;;;18.60;99.90;;;;;;5062571;28;20044;-73
2022/06/27 11:37:28;;;;;;;4.72;0.93;;;18.60;99.90;;;;;;5061697;28;20067;-73
2022/06/27 11:39:59;;;;;;;1.98;0.82;;;18.50;99.90;;;;;;5059166;28;20091;-73
2022/06/27 11:42:29;;;;;;;1.40;0.82;;;18.50;99.90;;;;;;5069344;28;20032;-73
2022/06/27 11:45:18;;;;;;;2.22;0.80;;;18.50;99.90;;;;;;5066154;28;20118;-73
2022/06/27 11:47:45;;;;;;;1.10;0.65;;;18.50;99.90;;;;;;5063661;28;21608;-73
2022/06/27 11:50:16;;;;;;;1.92;1.17;;;18.50;99.90;;;;;;5065715;28;20455;-73
2022/06/27 11:52:44;;;;;;;1.63;0.77;;;18.60;99.90;;;;;;5058177;28;20102;-73
2022/06/27 11:55:12;;;;;;;1.27;0.88;;;18.50;99.90;;;;;;5057620;28;20043;-73
2022/06/27 11:58:03;;;;;;;1.90;1.10;;;18.50;99.90;;;;;;5055033;28;20052;-73
2022/06/27 12:00:31;;;;;;;2.42;1.27;;;18.50;99.90;;;;;;5054258;28;20509;-73
2022/06/27 12:03:07;;;;;;;1.40;0.73;;;18.50;99.90;;;;;;5067569;28;20082;-73
2022/06/27 12:05:35;;;;;;;5.28;1.00;;;18.50;99.90;;;;;;5063829;28;20640;-73
2022/06/27 12:08:01;;;;;;;1.23;0.73;;;18.50;99.90;;;;;;5063395;28;20036;-73
2022/06/27 12:10:36;;;;;;;1.52;0.95;;;18.40;99.90;;;;;;5066963;28;20075;-73
2022/06/27 12:13:02;;;;;;;1.67;0.73;;;18.40;99.90;;;;;;5060006;28;20048;-73
2022/06/27 12:15:28;;;;;;;1.58;0.82;;;18.40;99.90;;;;;;5061348;28;20039;-73
2022/06/27 12:17:57;;;;;;;1.08;0.68;;;18.50;99.90;;;;;;5058769;28;20053;-73
2022/06/27 12:20:27;;;;;;;3.10;1.25;;;18.50;99.90;;;;;;5061495;28;20159;-73
2022/06/27 12:22:53;;;;;;;3.05;1.13;;;18.60;99.90;;;;;;5050660;28;20500;-73
2022/06/27 12:25:20;;;;;;;1.67;0.80;;;18.60;99.90;;;;;;5065623;28;20333;-73
2022/06/27 12:27:46;;;;;;;2.85;1.30;;;18.60;99.90;;;;;;5044161;28;20072;-73
2022/06/27 12:30:13;;;;;;;2.53;1.40;;;18.70;99.90;;;;;;5060060;28;20029;-73
2022/06/27 12:32:39;;;;;;;1.60;0.93;;;18.70;99.90;;;;;;5056697;28;20041;-73
2022/06/27 12:35:05;;;;;;;3.35;1.00;;;18.70;99.90;;;;;;5061315;28;20039;-72
2022/06/27 12:37:33;;;;;;;1.70;0.90;;;18.70;99.90;;;;;;5057157;28;20032;-69
2022/06/27 12:39:59;;;;;;;2.33;1.08;;;18.70;99.90;;;;;;5056058;28;20036;-73
2022/06/27 12:42:24;;;;;;;2.45;1.10;;;18.70;99.90;;;;;;5062398;28;20043;-74
2022/06/27 12:44:50;;;;;;;1.85;1.10;;;18.70;99.90;;;;;;5064809;28;20032;-74
2022/06/27 12:47:16;;;;;;;5.13;1.23;;;18.70;99.90;;;;;;5043673;28;20038;-72
2022/06/27 12:49:41;;;;;;;2.53;1.30;;;18.70;99.90;;;;;;5059779;28;20094;-73
2022/06/27 12:52:07;;;;;;;2.22;1.08;;;18.60;99.90;;;;;;5055996;28;20040;-73
2022/06/27 12:54:33;;;;;;;1.80;0.80;;;18.60;99.90;;;;;;5061508;28;20516;-72
2022/06/27 12:56:59;;;;;;;1.35;0.90;;;18.60;99.90;;;;;;5061116;28;20040;-71
2022/06/27 12:59:25;;;;;;;2.20;1.10;;;18.60;99.90;;;;;;5050654;28;20566;-72